Map

Track Data

SID SEASON NUMBER BASIN SUBBASIN NAME ISO_TIME NATURE LAT LON WMO_WIND WMO_PRES WMO_AGENCY TRACK_TYPE DIST2LAND LANDFALL IFLAG USA_AGENCY USA_ATCF_ID USA_LAT USA_LON USA_RECORD USA_STATUS USA_WIND USA_PRES USA_SSHS USA_R34_NE USA_R34_SE USA_R34_SW USA_R34_NW USA_R50_NE USA_R50_SE USA_R50_SW USA_R50_NW USA_R64_NE USA_R64_SE USA_R64_SW USA_R64_NW USA_POCI USA_ROCI USA_RMW USA_EYE TOKYO_LAT TOKYO_LON TOKYO_GRADE TOKYO_WIND TOKYO_PRES TOKYO_R50_DIR TOKYO_R50_LONG TOKYO_R50_SHORT TOKYO_R30_DIR TOKYO_R30_LONG TOKYO_R30_SHORT TOKYO_LAND CMA_LAT CMA_LON CMA_CAT CMA_WIND CMA_PRES HKO_LAT HKO_LON HKO_CAT HKO_WIND HKO_PRES NEWDELHI_LAT NEWDELHI_LON NEWDELHI_GRADE NEWDELHI_WIND NEWDELHI_PRES NEWDELHI_CI NEWDELHI_DP NEWDELHI_POCI REUNION_LAT REUNION_LON REUNION_TYPE REUNION_WIND REUNION_PRES REUNION_TNUM REUNION_CI REUNION_RMW REUNION_R34_NE REUNION_R34_SE REUNION_R34_SW REUNION_R34_NW REUNION_R50_NE REUNION_R50_SE REUNION_R50_SW REUNION_R50_NW REUNION_R64_NE REUNION_R64_SE REUNION_R64_SW REUNION_R64_NW BOM_LAT BOM_LON BOM_TYPE BOM_WIND BOM_PRES BOM_TNUM BOM_CI BOM_RMW BOM_R34_NE BOM_R34_SE BOM_R34_SW BOM_R34_NW BOM_R50_NE BOM_R50_SE BOM_R50_SW BOM_R50_NW BOM_R64_NE BOM_R64_SE BOM_R64_SW BOM_R64_NW BOM_ROCI BOM_POCI BOM_EYE BOM_POS_METHOD BOM_PRES_METHOD NADI_LAT NADI_LON NADI_CAT NADI_WIND NADI_PRES WELLINGTON_LAT WELLINGTON_LON WELLINGTON_WIND WELLINGTON_PRES DS824_LAT DS824_LON DS824_STAGE DS824_WIND DS824_PRES TD9636_LAT TD9636_LON TD9636_STAGE TD9636_WIND TD9636_PRES TD9635_LAT TD9635_LON TD9635_WIND TD9635_PRES TD9635_ROCI NEUMANN_LAT NEUMANN_LON NEUMANN_CLASS NEUMANN_WIND NEUMANN_PRES MLC_LAT MLC_LON MLC_CLASS MLC_WIND MLC_PRES USA_GUST BOM_GUST BOM_GUST_PER REUNION_GUST REUNION_GUST_PER USA_SEAHGT USA_SEARAD_NE USA_SEARAD_SE USA_SEARAD_SW USA_SEARAD_NW STORM_SPEED STORM_DIR
1909070S11140 1909 14 SP EA NOT_NAMED 1909-03-10 12:00:00 NR -11.0000 139.600 main 260 260 __________O___ -1 -11.0000 139.600 7 2 277
1909070S11140 1909 14 SP EA NOT_NAMED 1909-03-10 15:00:00 NR -10.9901 139.517 main 267 267 __________P___ -1 -10.9901 139.517 7 2 272
1909070S11140 1909 14 SP EA NOT_NAMED 1909-03-10 18:00:00 NR -10.9942 139.387 main 274 274 __________P___ -1 -10.9942 139.387 7 3 264
1909070S11140 1909 14 SP EA NOT_NAMED 1909-03-10 21:00:00 NR -11.0262 139.164 main 280 237 __________P___ -1 -11.0262 139.164 7 6 260
1909070S11140 1909 14 SP EA NOT_NAMED 1909-03-11 00:00:00 NR -11.1000 138.800 main 237 187 __________O___ -1 -11.1000 138.800 7 9 257
1909070S11140 1909 14 SP EA NOT_NAMED 1909-03-11 03:00:00 NR -11.2229 138.268 main 187 126 __________P___ -1 -11.2229 138.268 7 12 257
1909070S11140 1909 14 SP EA NOT_NAMED 1909-03-11 06:00:00 NR -11.3786 137.613 main 120 70 __________P___ -1 -11.3786 137.613 7 14 256
1909070S11140 1909 14 SP EA NOT_NAMED 1909-03-11 09:00:00 NR -11.5448 136.902 main 70 35 __________P___ -1 -11.5448 136.902 7 14 257
1909070S11140 1909 14 SP EA NOT_NAMED 1909-03-11 12:00:00 NR -11.7000 136.200 main 46 33 __________O___ -1 -11.7000 136.200 7 14 260
1909070S11140 1909 14 SP EA NOT_NAMED 1909-03-11 15:00:00 NR -11.7943 135.522 main 35 24 __________P___ -1 -11.7943 135.522 7 13 262
1909070S11140 1909 14 SI WA NOT_NAMED 1909-03-11 18:00:00 NR -11.8780 134.877 main 24 10 __________P___ -1 -11.8780 134.877 7 12 261
1909070S11140 1909 14 SI WA NOT_NAMED 1909-03-11 21:00:00 NR -11.9726 134.319 main 10 0 __________P___ -1 -11.9726 134.319 7 10 257
1909070S11140 1909 14 SI WA NOT_NAMED 1909-03-12 00:00:00 NR -12.1000 133.900 main 0 0 __________O___ -1 -12.1000 133.900 7 7 247
1909070S11140 1909 14 SI WA NOT_NAMED 1909-03-12 03:00:00 NR -12.2477 133.665 main 0 0 __________P___ -1 -12.2477 133.665 7 5 224
1909070S11140 1909 14 SI WA NOT_NAMED 1909-03-12 06:00:00 NR -12.4367 133.570 main 0 0 __________P___ -1 -12.4367 133.570 7 4 193
1909070S11140 1909 14 SI WA NOT_NAMED 1909-03-12 09:00:00 NR -12.6824 133.565 main 0 0 __________P___ -1 -12.6824 133.565 7 6 175
1909070S11140 1909 14 SI WA NOT_NAMED 1909-03-12 12:00:00 NR -13.0000 133.600 main 0 0 __________O___ -1 -13.0000 133.600 7 8 0
1909070S11140 1909 14 SI WA NOT_NAMED 1909-03-12 15:00:00 NR -13.4600 133.592 main 0 0 __________P___ -1 -13.4600 133.592 7 10 178
1909070S11140 1909 14 SI WA NOT_NAMED 1909-03-12 18:00:00 NR -13.9800 133.612 main 0 0 __________P___ -1 -13.9800 133.612 7 10 177
1909070S11140 1909 14 SI WA NOT_NAMED 1909-03-12 21:00:00 NR -14.4850 133.651 main 0 0 __________P___ -1 -14.4850 133.651 7 9 174
1909070S11140 1909 14 SI WA NOT_NAMED 1909-03-13 00:00:00 NR -14.9000 133.700 main 0 0 __________O___ -1 -14.9000 133.700 7 6 172
1909070S11140 1909 14 SI WA NOT_NAMED 1909-03-13 03:00:00 NR -15.1175 133.739 main 0 0 __________P___ -1 -15.1175 133.739 7 4 167
1909070S11140 1909 14 SI WA NOT_NAMED 1909-03-13 06:00:00 NR -15.2399 133.785 main 0 0 __________P___ -1 -15.2399 133.785 7 2 153
1909070S11140 1909 14 SI WA NOT_NAMED 1909-03-13 09:00:00 NR -15.3175 133.839 main 0 0 __________P___ -1 -15.3175 133.839 7 2 146
1909070S11140 1909 14 SI WA NOT_NAMED 1909-03-13 12:00:00 NR -15.4000 133.900 main 0 0 __________O___ -1 -15.4000 133.900 7 3 155
1909070S11140 1909 14 SI WA NOT_NAMED 1909-03-13 15:00:00 NR -15.5687 133.960 main 0 0 __________P___ -1 -15.5687 133.960 7 4 161
1909070S11140 1909 14 SI WA NOT_NAMED 1909-03-13 18:00:00 NR -15.7500 134.028 main 0 0 __________P___ -1 -15.7500 134.028 7 4 158
1909070S11140 1909 14 SI WA NOT_NAMED 1909-03-13 21:00:00 NR -15.9312 134.107 main 0 0 __________P___ -1 -15.9312 134.107 7 4 155
1909070S11140 1909 14 SI WA NOT_NAMED 1909-03-14 00:00:00 NR -16.1000 134.200 main 0 0 __________O___ -1 -16.1000 134.200 7 4 147
1909070S11140 1909 14 SI WA NOT_NAMED 1909-03-14 03:00:00 NR -16.2435 134.315 main 0 0 __________P___ -1 -16.2435 134.315 7 4 140
1909070S11140 1909 14 SI WA NOT_NAMED 1909-03-14 06:00:00 NR -16.3725 134.442 main 0 0 __________P___ -1 -16.3725 134.442 7 4 135
1909070S11140 1909 14 SI WA NOT_NAMED 1909-03-14 09:00:00 NR -16.4903 134.574 main 0 0 __________P___ -1 -16.4903 134.574 7 3 133
1909070S11140 1909 14 SI WA NOT_NAMED 1909-03-14 12:00:00 NR -16.6000 134.700 main 0 0 __________O___ -1 -16.6000 134.700 7 3 133
1909070S11140 1909 14 SI WA NOT_NAMED 1909-03-14 15:00:00 NR -16.7044 134.813 main 0 0 __________P___ -1 -16.7044 134.813 7 3 135
1909070S11140 1909 14 SI WA NOT_NAMED 1909-03-14 18:00:00 NR -16.8050 134.915 main 0 0 __________P___ -1 -16.8050 134.915 7 3 136
1909070S11140 1909 14 SP EA NOT_NAMED 1909-03-14 21:00:00 NR -16.9031 135.009 main 0 0 __________P___ -1 -16.9031 135.009 7 3 138
1909070S11140 1909 14 SP EA NOT_NAMED 1909-03-15 00:00:00 NR -17.0000 135.100 main 0 __________O___ -1 -17.0000 135.100 7 3 138

Digital Typhoon Data and Search

About IBTrACS Database

This database is a web-friendly format of International Best Track Archive for Climate Stewardship (IBTrACS), a global best track data archive curated by NOAA dating back to 1842.

Updated: 2021-12-03